createdAt,value
2019-02-24T00:01:22.973Z,4.10
2019-02-24T00:03:54.682Z,4.20
2019-02-24T00:06:25.389Z,4.20
2019-02-24T00:08:55.800Z,4.10
2019-02-24T00:11:26.148Z,4.10
2019-02-24T00:13:56.490Z,4.10
2019-02-24T00:16:27.127Z,4.20
2019-02-24T00:18:57.467Z,4.20
2019-02-24T00:21:27.878Z,4.20
2019-02-24T00:23:58.338Z,4.10
2019-02-24T00:26:28.684Z,4.10
2019-02-24T00:28:59.042Z,4.00
2019-02-24T00:31:29.390Z,3.90
2019-02-24T00:33:59.744Z,4.00
2019-02-24T00:36:30.101Z,4.00
2019-02-24T00:39:00.446Z,3.90
2019-02-24T00:41:30.823Z,3.90
2019-02-24T00:44:01.192Z,3.80
2019-02-24T00:46:31.553Z,3.80
2019-02-24T00:49:01.910Z,3.70
2019-02-24T00:51:32.277Z,3.70
2019-02-24T00:54:02.672Z,3.80
2019-02-24T00:56:33.010Z,3.80
2019-02-24T00:59:03.374Z,3.70
2019-02-24T01:01:33.718Z,3.60
2019-02-24T01:04:04.098Z,3.70
2019-02-24T01:06:34.441Z,3.60
2019-02-24T01:09:06.488Z,3.50
2019-02-24T01:11:36.914Z,3.30
2019-02-24T01:14:07.277Z,3.20
2019-02-24T01:16:37.602Z,3.00
2019-02-24T01:19:07.968Z,3.00
2019-02-24T01:21:38.315Z,3.00
2019-02-24T01:24:09.570Z,3.00
2019-02-24T01:26:39.917Z,3.00
2019-02-24T01:29:10.300Z,3.10
2019-02-24T01:31:40.644Z,3.00
2019-02-24T01:34:10.988Z,3.00
2019-02-24T01:36:41.362Z,3.00
2019-02-24T01:39:11.737Z,3.00
2019-02-24T01:41:42.090Z,3.10
2019-02-24T01:44:12.485Z,3.10
2019-02-24T01:46:42.843Z,3.00
2019-02-24T01:49:13.194Z,3.00
2019-02-24T01:51:43.554Z,3.00
2019-02-24T01:54:13.918Z,2.90
2019-02-24T01:56:44.258Z,3.00
2019-02-24T01:59:14.643Z,3.00
2019-02-24T02:01:44.985Z,2.80
2019-02-24T02:04:15.346Z,2.80
2019-02-24T02:06:45.681Z,2.80
2019-02-24T02:09:16.081Z,2.70
2019-02-24T02:11:46.422Z,2.70
2019-02-24T02:14:16.749Z,2.80
2019-02-24T02:16:47.105Z,2.70
2019-02-24T02:19:17.460Z,2.70
2019-02-24T02:21:47.802Z,2.70
2019-02-24T02:24:18.153Z,2.60
2019-02-24T02:26:48.521Z,2.60
2019-02-24T02:29:18.856Z,2.40
2019-02-24T02:31:49.208Z,2.50
2019-02-24T02:34:19.545Z,2.60
2019-02-24T02:36:49.898Z,2.60
2019-02-24T02:39:20.245Z,2.40
2019-02-24T02:41:50.602Z,2.50
2019-02-24T02:44:20.922Z,2.40
2019-02-24T02:46:51.283Z,2.40
2019-02-24T02:49:21.611Z,2.40
2019-02-24T02:51:51.954Z,2.30
2019-02-24T02:54:22.286Z,2.40
2019-02-24T02:56:52.658Z,2.40
2019-02-24T02:59:23.085Z,2.20
2019-02-24T03:01:53.456Z,2.30
2019-02-24T03:04:23.788Z,2.40
2019-02-24T03:07:13.074Z,2.30
2019-02-24T03:09:43.393Z,2.30
2019-02-24T03:12:13.750Z,2.30
2019-02-24T03:14:44.423Z,2.20
2019-02-24T03:17:14.808Z,2.30
2019-02-24T03:19:45.137Z,2.40
2019-02-24T03:22:15.477Z,2.30
2019-02-24T03:24:45.834Z,2.30
2019-02-24T03:27:16.246Z,2.30
2019-02-24T03:29:46.577Z,2.30
2019-02-24T03:32:16.926Z,2.30
2019-02-24T03:34:47.258Z,2.20
2019-02-24T03:37:17.619Z,2.10
2019-02-24T03:39:47.975Z,2.20
2019-02-24T03:42:18.313Z,2.10
2019-02-24T03:44:48.662Z,2.00
2019-02-24T03:47:19.053Z,2.00
2019-02-24T03:49:49.398Z,2.00
2019-02-24T03:52:19.722Z,2.10
2019-02-24T03:54:50.132Z,2.10
2019-02-24T03:57:20.486Z,1.90
2019-02-24T03:59:50.830Z,1.80
2019-02-24T04:02:21.195Z,1.60
2019-02-24T04:04:51.529Z,1.60
2019-02-24T04:07:21.850Z,1.50
2019-02-24T04:09:52.193Z,1.50
2019-02-24T04:12:22.542Z,1.60
2019-02-24T04:14:52.917Z,1.60
2019-02-24T04:17:23.258Z,1.60
2019-02-24T04:19:53.609Z,1.50
2019-02-24T04:22:23.946Z,1.60
2019-02-24T04:24:54.297Z,1.70
2019-02-24T04:27:24.701Z,1.70
2019-02-24T04:29:55.147Z,1.80
2019-02-24T04:32:25.494Z,1.70
2019-02-24T04:34:55.820Z,1.80
2019-02-24T04:37:26.142Z,1.70
2019-02-24T04:39:56.511Z,1.60
2019-02-24T04:42:27.343Z,1.60
2019-02-24T04:44:57.743Z,1.60
2019-02-24T04:47:28.090Z,1.50
2019-02-24T04:49:58.440Z,1.60
2019-02-24T04:52:28.797Z,1.60
2019-02-24T04:54:59.151Z,1.50
2019-02-24T04:57:29.498Z,1.50
2019-02-24T04:59:59.841Z,1.60
2019-02-24T05:02:30.189Z,1.70
2019-02-24T05:05:00.511Z,1.70
2019-02-24T05:07:30.861Z,1.70
2019-02-24T05:10:01.231Z,1.60
2019-02-24T05:12:31.596Z,1.50
2019-02-24T05:15:01.963Z,1.50
2019-02-24T05:17:32.305Z,1.40
2019-02-24T05:20:02.661Z,1.40
2019-02-24T05:22:33.039Z,1.40
2019-02-24T05:25:03.405Z,1.40
2019-02-24T05:27:33.755Z,1.40
2019-02-24T05:30:04.381Z,1.30
2019-02-24T05:32:34.732Z,1.20
2019-02-24T05:35:05.322Z,1.40
2019-02-24T05:37:35.673Z,1.50
2019-02-24T05:40:06.161Z,1.40
2019-02-24T05:42:36.523Z,1.40
2019-02-24T05:45:06.907Z,1.40
2019-02-24T05:47:37.253Z,1.40
2019-02-24T05:50:07.838Z,1.40
2019-02-24T05:52:38.226Z,1.30
2019-02-24T05:55:08.552Z,1.50
2019-02-24T05:57:38.902Z,1.60
2019-02-24T06:00:09.283Z,1.50
2019-02-24T06:02:39.685Z,1.40
2019-02-24T06:05:10.025Z,1.50
2019-02-24T06:07:40.414Z,1.50
2019-02-24T06:10:10.852Z,1.50
2019-02-24T06:12:41.219Z,1.40
2019-02-24T06:15:11.664Z,1.40
2019-02-24T06:17:41.992Z,1.40
2019-02-24T06:20:12.381Z,1.30
2019-02-24T06:22:42.704Z,1.20
2019-02-24T06:25:13.075Z,1.30
2019-02-24T06:27:43.405Z,1.30
2019-02-24T06:30:13.741Z,1.20
2019-02-24T06:32:44.112Z,1.20
2019-02-24T06:35:14.578Z,1.10
2019-02-24T06:37:44.932Z,1.20
2019-02-24T06:40:15.299Z,1.20
2019-02-24T06:42:45.627Z,1.20
2019-02-24T06:45:16.019Z,1.20
2019-02-24T06:47:46.518Z,1.10
2019-02-24T06:50:16.869Z,1.20
2019-02-24T06:52:47.202Z,1.20
2019-02-24T06:55:17.561Z,1.20
2019-02-24T06:57:47.906Z,1.10
2019-02-24T07:00:18.255Z,1.20
2019-02-24T07:02:48.837Z,1.10
2019-02-24T07:05:19.201Z,1.10
2019-02-24T07:07:49.559Z,1.20
2019-02-24T07:10:19.898Z,1.30
2019-02-24T07:12:50.302Z,1.30
2019-02-24T07:15:20.796Z,1.40
2019-02-24T07:17:51.672Z,1.50
2019-02-24T07:20:22.035Z,1.70
2019-02-24T07:22:52.418Z,1.90
2019-02-24T07:25:22.774Z,2.20
2019-02-24T07:27:53.121Z,2.40
2019-02-24T07:30:23.912Z,2.30
2019-02-24T07:32:54.337Z,2.30
2019-02-24T07:35:24.745Z,2.30
2019-02-24T07:37:55.147Z,2.30
2019-02-24T07:40:25.497Z,2.30
2019-02-24T07:42:55.898Z,2.30
2019-02-24T07:45:26.259Z,2.30
2019-02-24T07:47:56.640Z,2.40
2019-02-24T07:50:27.000Z,2.40
2019-02-24T07:52:57.361Z,2.50
2019-02-24T07:55:27.702Z,2.60
2019-02-24T07:57:58.054Z,2.70
2019-02-24T08:00:32.147Z,2.80
2019-02-24T08:03:00.445Z,3.00
2019-02-24T08:05:31.093Z,3.10
2019-02-24T08:08:02.548Z,3.30
2019-02-24T08:10:32.961Z,3.50
2019-02-24T08:13:03.332Z,3.90
2019-02-24T08:15:33.697Z,4.30
2019-02-24T08:18:04.613Z,4.90
2019-02-24T08:20:34.972Z,5.40
2019-02-24T08:23:05.349Z,6.10
2019-02-24T08:25:35.718Z,6.50
2019-02-24T08:28:06.487Z,6.70
2019-02-24T08:30:41.556Z,7.00
2019-02-24T08:33:09.094Z,7.10
2019-02-24T08:35:39.450Z,7.20
2019-02-24T08:38:09.794Z,7.40
2019-02-24T08:40:40.204Z,7.50
2019-02-24T08:43:10.673Z,7.50
2019-02-24T08:45:41.071Z,7.50
2019-02-24T08:48:11.401Z,7.60
2019-02-24T08:50:41.820Z,7.60
2019-02-24T08:53:12.194Z,7.40
2019-02-24T08:55:42.580Z,7.60
2019-02-24T08:58:13.054Z,7.70
2019-02-24T09:00:50.728Z,7.80
2019-02-24T09:03:15.594Z,7.90
2019-02-24T09:05:45.995Z,8.20
2019-02-24T09:08:16.333Z,8.30
2019-02-24T09:10:46.721Z,8.40
2019-02-24T09:13:17.081Z,8.50
2019-02-24T09:15:47.453Z,8.40
2019-02-24T09:18:17.841Z,8.50
2019-02-24T09:20:48.222Z,8.50
2019-02-24T09:23:18.581Z,8.70
2019-02-24T09:25:48.960Z,8.60
2019-02-24T09:28:19.339Z,8.70
2019-02-24T09:30:49.777Z,8.80
2019-02-24T09:33:20.201Z,8.90
2019-02-24T09:35:51.723Z,8.90
2019-02-24T09:38:22.281Z,9.00
2019-02-24T09:40:52.691Z,9.10
2019-02-24T09:43:23.054Z,9.30
2019-02-24T09:45:53.425Z,9.40
2019-02-24T09:48:23.788Z,9.50
2019-02-24T09:50:54.194Z,9.70
2019-02-24T09:53:24.562Z,9.80
2019-02-24T09:55:54.944Z,10.30
2019-02-24T09:58:25.399Z,10.50
2019-02-24T10:00:55.797Z,10.40
2019-02-24T10:03:26.206Z,10.30
2019-02-24T10:05:56.648Z,10.40
2019-02-24T10:08:27.018Z,10.60
2019-02-24T10:10:57.415Z,10.80
2019-02-24T10:13:27.790Z,10.80
2019-02-24T10:15:58.149Z,10.80
2019-02-24T10:18:28.547Z,11.00
2019-02-24T10:20:58.933Z,11.20
2019-02-24T10:23:29.352Z,11.30
2019-02-24T10:26:00.001Z,11.40
2019-02-24T10:28:30.407Z,11.20
2019-02-24T10:31:01.639Z,11.20
2019-02-24T10:33:32.111Z,11.20
2019-02-24T10:36:02.561Z,11.40
2019-02-24T10:38:32.944Z,11.60
2019-02-24T10:41:03.441Z,12.00
2019-02-24T10:43:33.953Z,12.30
2019-02-24T10:46:04.341Z,12.60
2019-02-24T10:48:34.819Z,12.90
2019-02-24T10:51:05.249Z,13.10
2019-02-24T10:53:35.674Z,13.60
2019-02-24T10:56:06.058Z,14.30
2019-02-24T10:58:36.458Z,14.60
2019-02-24T11:01:07.161Z,14.60
2019-02-24T11:03:37.543Z,15.00
2019-02-24T11:06:08.039Z,15.70
2019-02-24T11:08:38.526Z,16.90
2019-02-24T11:11:09.002Z,16.90
2019-02-24T11:13:39.426Z,17.50
2019-02-24T11:16:09.897Z,18.00
2019-02-24T11:18:40.346Z,18.10
2019-02-24T11:21:10.794Z,18.00
2019-02-24T11:23:41.385Z,18.20
2019-02-24T11:26:11.922Z,18.40
2019-02-24T11:28:42.334Z,18.60
2019-02-24T11:31:12.759Z,18.90
2019-02-24T11:33:43.170Z,19.30
2019-02-24T11:36:13.624Z,19.30
2019-02-24T11:38:44.017Z,19.30
2019-02-24T11:41:14.430Z,19.30
2019-02-24T11:43:44.809Z,18.80
2019-02-24T11:46:15.196Z,18.50
2019-02-24T11:48:45.608Z,18.30
2019-02-24T11:51:16.029Z,18.50
2019-02-24T11:53:46.407Z,18.40
2019-02-24T11:56:16.854Z,18.30
2019-02-24T11:58:47.240Z,17.80
2019-02-24T12:01:17.712Z,17.90
2019-02-24T12:03:48.113Z,18.10
2019-02-24T12:06:18.493Z,18.10
2019-02-24T12:08:48.889Z,18.00
2019-02-24T12:11:19.679Z,18.30
2019-02-24T12:13:50.181Z,18.10
2019-02-24T12:16:20.607Z,18.00
2019-02-24T12:18:51.015Z,18.10
2019-02-24T12:21:21.396Z,18.20
2019-02-24T12:23:51.786Z,18.30
2019-02-24T12:26:22.165Z,18.00
2019-02-24T12:28:52.586Z,18.10
2019-02-24T12:31:22.956Z,18.10
2019-02-24T12:33:53.358Z,18.10
2019-02-24T12:36:23.746Z,18.40
2019-02-24T12:38:54.158Z,18.50
2019-02-24T12:41:24.529Z,18.50
2019-02-24T12:43:54.915Z,18.70
2019-02-24T12:46:25.441Z,18.70
2019-02-24T12:48:55.856Z,18.30
2019-02-24T12:51:26.326Z,18.20
2019-02-24T12:53:56.732Z,18.10
2019-02-24T12:56:27.148Z,18.20
2019-02-24T12:58:57.569Z,18.20
2019-02-24T13:01:28.052Z,18.20
2019-02-24T13:03:58.503Z,18.10
2019-02-24T13:06:28.907Z,18.30
2019-02-24T13:08:59.278Z,18.30
2019-02-24T13:11:29.683Z,18.40
2019-02-24T13:14:00.098Z,18.30
2019-02-24T13:16:30.558Z,18.40
2019-02-24T13:19:00.920Z,18.70
2019-02-24T13:21:31.409Z,18.60
2019-02-24T13:24:01.767Z,18.80
2019-02-24T13:26:32.185Z,18.80
2019-02-24T13:29:02.751Z,18.80
2019-02-24T13:31:33.192Z,18.80
2019-02-24T13:34:03.589Z,18.80
2019-02-24T13:36:34.104Z,18.80
2019-02-24T13:39:05.954Z,18.70
2019-02-24T13:41:36.368Z,18.70
2019-02-24T13:44:06.968Z,18.60
2019-02-24T13:46:37.359Z,18.70
2019-02-24T13:49:07.779Z,19.10
2019-02-24T13:51:38.204Z,19.00
2019-02-24T13:54:08.602Z,19.30
2019-02-24T13:56:39.010Z,19.40
2019-02-24T13:59:09.419Z,19.40
2019-02-24T14:01:39.788Z,19.40
2019-02-24T14:04:10.155Z,19.60
2019-02-24T14:06:40.554Z,19.80
2019-02-24T14:09:11.497Z,19.90
2019-02-24T14:11:41.982Z,19.50
2019-02-24T14:14:12.359Z,19.60
2019-02-24T14:16:42.774Z,19.50
2019-02-24T14:19:13.238Z,19.50
2019-02-24T14:21:43.707Z,19.50
2019-02-24T14:24:14.169Z,19.50
2019-02-24T14:26:44.637Z,19.40
2019-02-24T14:29:15.033Z,19.50
2019-02-24T14:31:45.461Z,19.20
2019-02-24T14:34:15.875Z,18.80
2019-02-24T14:36:46.327Z,18.90
2019-02-24T14:39:16.800Z,19.00
2019-02-24T14:41:47.417Z,19.30
2019-02-24T14:44:17.827Z,19.50
2019-02-24T14:46:48.456Z,20.10
2019-02-24T14:49:18.907Z,21.00
2019-02-24T14:51:49.556Z,21.60
2019-02-24T14:54:22.270Z,22.00
2019-02-24T14:56:52.674Z,22.30
2019-02-24T14:59:23.156Z,22.40
2019-02-24T15:01:53.633Z,22.40
2019-02-24T15:04:24.038Z,22.10
2019-02-24T15:06:54.451Z,22.00
2019-02-24T15:09:24.878Z,21.70
2019-02-24T15:11:55.442Z,21.80
2019-02-24T15:14:25.886Z,21.60
2019-02-24T15:16:56.282Z,21.50
2019-02-24T15:19:26.733Z,21.60
2019-02-24T15:21:57.252Z,21.30
2019-02-24T15:24:27.749Z,21.10
2019-02-24T15:26:58.154Z,20.90
2019-02-24T15:29:28.562Z,20.70
2019-02-24T15:31:58.962Z,20.60
2019-02-24T15:34:29.455Z,20.50
2019-02-24T15:36:59.843Z,20.30
2019-02-24T15:39:30.273Z,20.50
2019-02-24T15:42:00.643Z,20.30
2019-02-24T15:44:31.074Z,20.20
2019-02-24T15:47:01.514Z,19.80
2019-02-24T15:49:32.003Z,19.30
2019-02-24T15:52:09.715Z,19.10
2019-02-24T15:54:34.502Z,18.80
2019-02-24T15:57:04.893Z,18.60
2019-02-24T15:59:35.250Z,18.40
2019-02-24T16:02:05.682Z,18.30
2019-02-24T16:04:36.103Z,17.90
2019-02-24T16:07:06.589Z,17.70
2019-02-24T16:09:37.050Z,17.60
2019-02-24T16:12:07.525Z,17.50
2019-02-24T16:14:38.008Z,17.40
2019-02-24T16:17:08.445Z,17.20
2019-02-24T16:19:38.887Z,17.10
2019-02-24T16:22:09.590Z,17.00
2019-02-24T16:24:40.354Z,16.70
2019-02-24T16:27:10.813Z,16.60
2019-02-24T16:29:41.343Z,16.40
2019-02-24T16:32:11.894Z,16.40
2019-02-24T16:34:42.402Z,16.30
2019-02-24T16:37:12.903Z,16.10
2019-02-24T16:39:43.452Z,16.00
2019-02-24T16:42:13.891Z,15.80
2019-02-24T16:44:44.630Z,15.50
2019-02-24T16:47:15.101Z,15.50
2019-02-24T16:49:45.626Z,15.40
2019-02-24T16:52:16.130Z,15.20
2019-02-24T16:54:52.499Z,15.00
2019-02-24T16:57:20.830Z,15.00
2019-02-24T16:59:51.289Z,14.90
2019-02-24T17:02:23.061Z,14.80
2019-02-24T17:04:53.685Z,14.60
2019-02-24T17:07:24.112Z,14.50
2019-02-24T17:09:54.590Z,14.50
2019-02-24T17:12:25.003Z,14.20
2019-02-24T17:14:55.463Z,14.10
2019-02-24T17:17:25.946Z,13.80
2019-02-24T17:19:59.154Z,13.70
2019-02-24T17:22:29.577Z,13.60
2019-02-24T17:25:00.185Z,13.30
2019-02-24T17:27:30.815Z,13.20
2019-02-24T17:30:01.225Z,13.10
2019-02-24T17:32:31.881Z,13.10
2019-02-24T17:35:02.674Z,12.80
2019-02-24T17:37:33.390Z,12.60
2019-02-24T17:40:04.431Z,12.60
2019-02-24T17:42:35.150Z,12.60
2019-02-24T17:45:06.696Z,12.50
2019-02-24T17:47:37.455Z,12.60
2019-02-24T17:50:09.570Z,12.50
2019-02-24T17:52:40.327Z,12.20
2019-02-24T17:55:11.855Z,12.10
2019-02-24T17:57:42.811Z,12.00
2019-02-24T18:00:17.060Z,12.10
2019-02-24T18:02:48.105Z,12.00
2019-02-24T18:05:18.954Z,11.80
2019-02-24T18:07:49.683Z,11.70
2019-02-24T18:10:22.719Z,11.60
2019-02-24T18:12:53.532Z,11.60
2019-02-24T18:15:24.210Z,11.60
2019-02-24T18:17:54.923Z,11.70
2019-02-24T18:20:25.609Z,11.70
2019-02-24T18:22:56.552Z,11.70
2019-02-24T18:25:27.294Z,11.80
2019-02-24T18:27:57.908Z,11.90
2019-02-24T18:30:28.781Z,11.80
2019-02-24T18:32:59.462Z,11.90
2019-02-24T18:35:32.800Z,11.90
2019-02-24T18:38:03.576Z,11.80
2019-02-24T18:40:34.226Z,11.70
2019-02-24T18:43:05.786Z,11.70
2019-02-24T18:45:36.474Z,11.70
2019-02-24T18:48:07.213Z,11.60
2019-02-24T18:50:37.976Z,11.50
2019-02-24T18:53:08.718Z,11.30
2019-02-24T18:55:39.621Z,11.20
2019-02-24T18:58:11.233Z,11.10
2019-02-24T19:00:42.991Z,11.10
2019-02-24T19:03:13.786Z,11.00
2019-02-24T19:05:44.688Z,11.00
2019-02-24T19:08:15.390Z,10.90
2019-02-24T19:10:46.220Z,10.70
2019-02-24T19:13:16.917Z,10.80
2019-02-24T19:15:47.798Z,10.70
2019-02-24T19:18:18.310Z,10.60
2019-02-24T19:20:48.712Z,10.60
2019-02-24T19:23:19.169Z,10.40
2019-02-24T19:25:49.585Z,10.50
2019-02-24T19:28:19.981Z,10.50
2019-02-24T19:30:50.380Z,10.50
2019-02-24T19:33:20.926Z,10.40
2019-02-24T19:35:51.357Z,10.40
2019-02-24T19:38:21.746Z,10.40
2019-02-24T19:40:52.156Z,10.40
2019-02-24T19:43:22.524Z,10.40
2019-02-24T19:45:52.982Z,10.40
2019-02-24T19:48:23.394Z,10.20
2019-02-24T19:50:53.781Z,10.20
2019-02-24T19:53:24.279Z,10.20
2019-02-24T19:55:54.678Z,10.20
2019-02-24T19:58:25.063Z,10.20
2019-02-24T20:00:55.935Z,10.10
2019-02-24T20:03:26.301Z,10.00
2019-02-24T20:05:56.758Z,9.90
2019-02-24T20:08:27.130Z,9.80
2019-02-24T20:10:57.553Z,9.90
2019-02-24T20:13:27.948Z,9.80
2019-02-24T20:15:58.365Z,9.80
2019-02-24T20:18:28.766Z,9.60
2019-02-24T20:20:59.134Z,9.60
2019-02-24T20:23:29.718Z,9.60
2019-02-24T20:26:00.125Z,9.50
2019-02-24T20:28:30.582Z,9.50
2019-02-24T20:31:00.995Z,9.40
2019-02-24T20:33:31.419Z,9.30
2019-02-24T20:36:01.782Z,9.30
2019-02-24T20:38:32.149Z,9.20
2019-02-24T20:41:02.558Z,9.20
2019-02-24T20:43:32.923Z,9.20
2019-02-24T20:46:03.298Z,9.20
2019-02-24T20:48:33.670Z,9.30
2019-02-24T20:51:04.154Z,9.30
2019-02-24T20:53:34.531Z,9.10
2019-02-24T20:56:04.921Z,9.00
2019-02-24T20:58:35.292Z,9.10
2019-02-24T21:01:07.507Z,9.00
2019-02-24T21:03:38.039Z,9.00
2019-02-24T21:06:08.435Z,8.60
2019-02-24T21:08:38.797Z,8.50
2019-02-24T21:11:09.074Z,8.40
2019-02-24T21:13:39.474Z,8.50
2019-02-24T21:16:09.861Z,8.30
2019-02-24T21:18:40.674Z,8.40
2019-02-24T21:21:11.087Z,8.20
2019-02-24T21:23:41.435Z,8.20
2019-02-24T21:26:11.832Z,8.10
2019-02-24T21:28:42.183Z,8.00
2019-02-24T21:31:12.549Z,8.00
2019-02-24T21:33:43.238Z,7.80
2019-02-24T21:36:13.662Z,7.60
2019-02-24T21:38:44.057Z,7.40
2019-02-24T21:41:14.437Z,7.30
2019-02-24T21:43:44.810Z,7.30
2019-02-24T21:46:15.234Z,7.40
2019-02-24T21:48:45.605Z,7.40
2019-02-24T21:51:15.981Z,7.50
2019-02-24T21:53:46.372Z,7.30
2019-02-24T21:56:16.753Z,7.40
2019-02-24T21:58:47.178Z,7.40
2019-02-24T22:01:17.542Z,7.30
2019-02-24T22:03:47.895Z,7.30
2019-02-24T22:06:18.305Z,7.10
2019-02-24T22:08:48.690Z,7.20
2019-02-24T22:11:19.079Z,7.20
2019-02-24T22:13:50.383Z,7.10
2019-02-24T22:16:20.826Z,7.00
2019-02-24T22:18:51.251Z,6.90
2019-02-24T22:21:21.651Z,7.00
2019-02-24T22:23:52.042Z,7.00
2019-02-24T22:26:22.457Z,6.70
2019-02-24T22:28:52.881Z,6.50
2019-02-24T22:31:23.267Z,6.60
2019-02-24T22:33:53.630Z,6.70
2019-02-24T22:36:24.010Z,6.60
2019-02-24T22:38:54.385Z,6.60
2019-02-24T22:41:24.811Z,6.60
2019-02-24T22:43:55.174Z,6.60
2019-02-24T22:46:25.612Z,6.50
2019-02-24T22:48:55.986Z,6.50
2019-02-24T22:51:26.361Z,6.50
2019-02-24T22:53:56.731Z,6.40
2019-02-24T22:56:27.084Z,6.30
2019-02-24T22:58:57.455Z,6.00
2019-02-24T23:01:36.711Z,6.10
2019-02-24T23:04:12.671Z,6.00
2019-02-24T23:06:43.034Z,6.00
2019-02-24T23:09:19.970Z,6.20
2019-02-24T23:11:50.456Z,6.00
2019-02-24T23:14:20.836Z,5.90
2019-02-24T23:16:51.211Z,6.00
2019-02-24T23:19:21.563Z,6.00
2019-02-24T23:21:51.921Z,5.90
2019-02-24T23:24:24.069Z,6.00
2019-02-24T23:26:54.347Z,6.00
2019-02-24T23:29:24.733Z,5.90
2019-02-24T23:31:55.084Z,5.90
2019-02-24T23:34:25.465Z,5.80
2019-02-24T23:36:55.901Z,5.70
2019-02-24T23:39:26.287Z,5.80
2019-02-24T23:41:56.669Z,5.80
2019-02-24T23:44:27.023Z,5.60
2019-02-24T23:46:57.390Z,5.50
2019-02-24T23:49:27.760Z,5.50
2019-02-24T23:51:58.090Z,5.40
2019-02-24T23:54:28.453Z,5.20
2019-02-24T23:56:58.805Z,5.40
2019-02-24T23:59:29.166Z,5.50
